FDX5GI EDDF-EGLL
Flight info
| Callsign | FDX5GI |
|---|---|
| Flight time | 1h 13m |
| Altitude | 34000 |
| Route | OBOKA3W OBOKA Z29 TORNU DCT ABNED L980 LOGAN |
| Aircraft | A306/H-SDE3FGHIRWY/LB1 |
Departure
| Time | 2026-05-06 17:57 |
|---|---|
| Airport | Frankfurt Main Airport (EDDF) |
Arrival
| Time | 2026-05-06 19:10 |
|---|---|
| Airport | London Heathrow Airport (EGLL) |
| Time | Latitude | Longitude | Altitude | Speed | Heading |
|---|---|---|---|---|---|
| 2026-05-06 17:05 | 50.03818 | 8.53496 | 350 ft | 0 kts | 340° |
| 2026-05-06 17:40 | 50.03806 | 8.53502 | 360 ft | 3 kts | 341° |
| 2026-05-06 17:41 | 50.03787 | 8.53511 | 356 ft | 3 kts | 344° |
| 2026-05-06 17:41 | 50.03768 | 8.53520 | 359 ft | 3 kts | 349° |
| 2026-05-06 17:41 | 50.03748 | 8.53524 | 358 ft | 3 kts | 359° |
| 2026-05-06 17:41 | 50.03730 | 8.53522 | 359 ft | 3 kts | 28° |
| 2026-05-06 17:42 | 50.03720 | 8.53517 | 356 ft | 3 kts | 87° |
| 2026-05-06 17:42 | 50.03716 | 8.53520 | 357 ft | 1 kts | 134° |
| 2026-05-06 17:42 | 50.03717 | 8.53519 | 357 ft | 1 kts | 134° |
| 2026-05-06 17:44 | 50.03709 | 8.53531 | 358 ft | 6 kts | 135° |
| 2026-05-06 17:45 | 50.03667 | 8.53578 | 354 ft | 6 kts | 170° |
| 2026-05-06 17:45 | 50.03607 | 8.53544 | 354 ft | 14 kts | 203° |
| 2026-05-06 17:45 | 50.03506 | 8.53488 | 353 ft | 7 kts | 166° |
| 2026-05-06 17:45 | 50.03483 | 8.53536 | 351 ft | 14 kts | 100° |
| 2026-05-06 17:46 | 50.03523 | 8.53766 | 352 ft | 28 kts | 76° |
| 2026-05-06 17:46 | 50.03589 | 8.54015 | 352 ft | 23 kts | 70° |
| 2026-05-06 17:46 | 50.03643 | 8.54246 | 355 ft | 22 kts | 69° |
| 2026-05-06 17:46 | 50.03696 | 8.54458 | 356 ft | 17 kts | 71° |
| 2026-05-06 17:47 | 50.03719 | 8.54559 | 355 ft | 9 kts | 70° |
| 2026-05-06 17:47 | 50.03754 | 8.54719 | 359 ft | 24 kts | 70° |
| 2026-05-06 17:47 | 50.03826 | 8.54989 | 362 ft | 28 kts | 72° |
| 2026-05-06 17:47 | 50.03897 | 8.55309 | 360 ft | 34 kts | 69° |
| 2026-05-06 17:48 | 50.03984 | 8.55674 | 357 ft | 33 kts | 71° |
| 2026-05-06 17:48 | 50.04031 | 8.55874 | 363 ft | 19 kts | 65° |
| 2026-05-06 17:48 | 50.04089 | 8.56092 | 364 ft | 25 kts | 72° |
| 2026-05-06 17:48 | 50.04162 | 8.56368 | 361 ft | 29 kts | 69° |
| 2026-05-06 17:49 | 50.04231 | 8.56657 | 366 ft | 27 kts | 53° |
| 2026-05-06 17:49 | 50.04276 | 8.56885 | 367 ft | 20 kts | 72° |
| 2026-05-06 17:49 | 50.04318 | 8.57083 | 373 ft | 18 kts | 73° |
| 2026-05-06 17:49 | 50.04361 | 8.57257 | 369 ft | 17 kts | 68° |
| 2026-05-06 17:50 | 50.04406 | 8.57442 | 369 ft | 22 kts | 71° |
| 2026-05-06 17:50 | 50.04468 | 8.57703 | 373 ft | 29 kts | 71° |
| 2026-05-06 17:50 | 50.04517 | 8.57906 | 372 ft | 7 kts | 70° |
| 2026-05-06 17:50 | 50.04518 | 8.57913 | 372 ft | 0 kts | 70° |
| 2026-05-06 17:51 | 50.04519 | 8.57913 | 372 ft | 1 kts | 70° |
| 2026-05-06 17:51 | 50.04543 | 8.58010 | 373 ft | 18 kts | 68° |
| 2026-05-06 17:51 | 50.04602 | 8.58263 | 375 ft | 27 kts | 70° |
| 2026-05-06 17:51 | 50.04639 | 8.58427 | 376 ft | 0 kts | 69° |
| 2026-05-06 17:52 | 50.04640 | 8.58428 | 375 ft | 2 kts | 69° |
| 2026-05-06 17:52 | 50.04632 | 8.58561 | 375 ft | 17 kts | 140° |
| 2026-05-06 17:53 | 50.04608 | 8.58580 | 375 ft | 0 kts | 156° |
| 2026-05-06 17:53 | 50.04594 | 8.58590 | 377 ft | 9 kts | 155° |
| 2026-05-06 17:54 | 50.04489 | 8.58601 | 377 ft | 22 kts | 213° |
| 2026-05-06 17:54 | 50.04447 | 8.58417 | 376 ft | 0 kts | 253° |
| 2026-05-06 17:54 | 50.04445 | 8.58411 | 376 ft | 2 kts | 251° |
| 2026-05-06 17:55 | 50.04443 | 8.58402 | 375 ft | 0 kts | 251° |
| 2026-05-06 17:55 | 50.04440 | 8.58389 | 375 ft | 1 kts | 251° |
| 2026-05-06 17:55 | 50.04440 | 8.58388 | 375 ft | 0 kts | 251° |
| 2026-05-06 17:56 | 50.04439 | 8.58386 | 375 ft | 3 kts | 249° |
| 2026-05-06 17:56 | 50.04352 | 8.58028 | 373 ft | 74 kts | 250° |
| 2026-05-06 17:57 | 50.04093 | 8.56937 | 370 ft | 139 kts | 250° |
| 2026-05-06 17:57 | 50.03679 | 8.55237 | 509 ft | 186 kts | 251° |
| 2026-05-06 17:57 | 50.03188 | 8.53289 | 1356 ft | 195 kts | 252° |
| 2026-05-06 17:57 | 50.02791 | 8.51338 | 2589 ft | 189 kts | 261° |
| 2026-05-06 17:58 | 50.02749 | 8.49333 | 3777 ft | 187 kts | 273° |
| 2026-05-06 17:58 | 50.02916 | 8.47283 | 4671 ft | 199 kts | 277° |
| 2026-05-06 17:58 | 50.03110 | 8.45075 | 5442 ft | 209 kts | 271° |
| 2026-05-06 17:58 | 50.02931 | 8.42841 | 6390 ft | 208 kts | 255° |
| 2026-05-06 17:59 | 50.02512 | 8.40726 | 7374 ft | 203 kts | 252° |
| 2026-05-06 17:59 | 50.02214 | 8.38600 | 8372 ft | 201 kts | 259° |
| 2026-05-06 17:59 | 50.01996 | 8.36446 | 9304 ft | 202 kts | 260° |
| 2026-05-06 17:59 | 50.01773 | 8.34283 | 10134 ft | 204 kts | 259° |
| 2026-05-06 18:00 | 50.01530 | 8.32078 | 10869 ft | 211 kts | 259° |
| 2026-05-06 18:00 | 50.01320 | 8.29697 | 11239 ft | 235 kts | 266° |
| 2026-05-06 18:00 | 50.01520 | 8.27106 | 11755 ft | 248 kts | 285° |
| 2026-05-06 18:00 | 50.02159 | 8.24570 | 12417 ft | 257 kts | 291° |
| 2026-05-06 18:01 | 50.02928 | 8.21958 | 12776 ft | 276 kts | 292° |
| 2026-05-06 18:01 | 50.03771 | 8.19127 | 12841 ft | 302 kts | 292° |
| 2026-05-06 18:01 | 50.04685 | 8.16032 | 12829 ft | 321 kts | 292° |
| 2026-05-06 18:01 | 50.05637 | 8.12972 | 12806 ft | 307 kts | 297° |
| 2026-05-06 18:02 | 50.06802 | 8.10268 | 12814 ft | 298 kts | 305° |
| 2026-05-06 18:02 | 50.08084 | 8.07738 | 12869 ft | 298 kts | 306° |
| 2026-05-06 18:02 | 50.09390 | 8.05218 | 13331 ft | 300 kts | 307° |
| 2026-05-06 18:02 | 50.10667 | 8.02752 | 14284 ft | 290 kts | 306° |
| 2026-05-06 18:03 | 50.11912 | 8.00341 | 15200 ft | 283 kts | 306° |
| 2026-05-06 18:03 | 50.13141 | 7.97954 | 15937 ft | 283 kts | 306° |
| 2026-05-06 18:03 | 50.14373 | 7.95556 | 16613 ft | 284 kts | 306° |
| 2026-05-06 18:03 | 50.15612 | 7.93142 | 17215 ft | 287 kts | 306° |
| 2026-05-06 18:04 | 50.16862 | 7.90704 | 17853 ft | 289 kts | 306° |
| 2026-05-06 18:04 | 50.18122 | 7.88243 | 18413 ft | 291 kts | 306° |
| 2026-05-06 18:04 | 50.19390 | 7.85763 | 18928 ft | 294 kts | 306° |
| 2026-05-06 18:04 | 50.20673 | 7.83254 | 19433 ft | 297 kts | 306° |
| 2026-05-06 18:05 | 50.21965 | 7.80723 | 19932 ft | 299 kts | 306° |
| 2026-05-06 18:05 | 50.23267 | 7.78175 | 20436 ft | 302 kts | 307° |
| 2026-05-06 18:05 | 50.24674 | 7.75718 | 20924 ft | 306 kts | 313° |
| 2026-05-06 18:05 | 50.26325 | 7.73596 | 21412 ft | 310 kts | 323° |
| 2026-05-06 18:06 | 50.28220 | 7.71923 | 21888 ft | 315 kts | 332° |
| 2026-05-06 18:06 | 50.30232 | 7.70503 | 22385 ft | 318 kts | 334° |
| 2026-05-06 18:06 | 50.32273 | 7.69122 | 22856 ft | 321 kts | 334° |
| 2026-05-06 18:06 | 50.34330 | 7.67731 | 23324 ft | 324 kts | 334° |
| 2026-05-06 18:07 | 50.36407 | 7.66318 | 23709 ft | 326 kts | 334° |
| 2026-05-06 18:07 | 50.38499 | 7.64889 | 24093 ft | 329 kts | 334° |
| 2026-05-06 18:07 | 50.40607 | 7.63443 | 24476 ft | 332 kts | 334° |
| 2026-05-06 18:07 | 50.42730 | 7.61986 | 24866 ft | 335 kts | 334° |
| 2026-05-06 18:08 | 50.44874 | 7.60512 | 25245 ft | 337 kts | 334° |
| 2026-05-06 18:08 | 50.47025 | 7.59031 | 25676 ft | 337 kts | 334° |
| 2026-05-06 18:08 | 50.49173 | 7.57551 | 26155 ft | 337 kts | 334° |
| 2026-05-06 18:08 | 50.51315 | 7.56072 | 26630 ft | 336 kts | 334° |
| 2026-05-06 18:09 | 50.53457 | 7.54593 | 27083 ft | 336 kts | 334° |
| 2026-05-06 18:09 | 50.55564 | 7.53028 | 27534 ft | 335 kts | 329° |
| 2026-05-06 18:09 | 50.57564 | 7.51170 | 27965 ft | 333 kts | 325° |
| 2026-05-06 18:09 | 50.59517 | 7.49199 | 28406 ft | 333 kts | 324° |
| 2026-05-06 18:10 | 50.61459 | 7.47208 | 28765 ft | 336 kts | 324° |
| 2026-05-06 18:10 | 50.63433 | 7.45179 | 28990 ft | 342 kts | 325° |
| 2026-05-06 18:10 | 50.65442 | 7.43116 | 29277 ft | 346 kts | 325° |
| 2026-05-06 18:10 | 50.67462 | 7.41042 | 29665 ft | 347 kts | 325° |
| 2026-05-06 18:11 | 50.69489 | 7.38959 | 30087 ft | 347 kts | 325° |
| 2026-05-06 18:11 | 50.70809 | 7.37554 | 30306 ft | 346 kts | 322° |
| 2026-05-06 18:11 | 50.73268 | 7.34318 | 30819 ft | 343 kts | 313° |
| 2026-05-06 18:11 | 50.74851 | 7.31530 | 31181 ft | 340 kts | 306° |
| 2026-05-06 18:12 | 50.76188 | 7.28468 | 31532 ft | 338 kts | 298° |
| 2026-05-06 18:12 | 50.77335 | 7.25235 | 31871 ft | 336 kts | 296° |
| 2026-05-06 18:12 | 50.78411 | 7.22013 | 32187 ft | 336 kts | 295° |
| 2026-05-06 18:12 | 50.79472 | 7.18731 | 32487 ft | 335 kts | 294° |
| 2026-05-06 18:13 | 50.80521 | 7.15448 | 32822 ft | 334 kts | 294° |
| 2026-05-06 18:13 | 50.81571 | 7.12161 | 33101 ft | 335 kts | 294° |
| 2026-05-06 18:13 | 50.82625 | 7.08869 | 33334 ft | 337 kts | 294° |
| 2026-05-06 18:13 | 50.83689 | 7.05556 | 33554 ft | 339 kts | 294° |
| 2026-05-06 18:14 | 50.84764 | 7.02216 | 33751 ft | 341 kts | 294° |
| 2026-05-06 18:14 | 50.85848 | 6.98856 | 33864 ft | 346 kts | 294° |
| 2026-05-06 18:14 | 50.88046 | 6.92037 | 33861 ft | 348 kts | 294° |
| 2026-05-06 18:15 | 50.90246 | 6.85203 | 33866 ft | 348 kts | 294° |
| 2026-05-06 18:15 | 50.92441 | 6.78359 | 33889 ft | 348 kts | 294° |
| 2026-05-06 18:16 | 50.94632 | 6.71509 | 33883 ft | 348 kts | 294° |
| 2026-05-06 18:16 | 50.96818 | 6.64651 | 33871 ft | 348 kts | 294° |
| 2026-05-06 18:17 | 50.98999 | 6.57791 | 33890 ft | 351 kts | 294° |
| 2026-05-06 18:17 | 51.01244 | 6.50699 | 33889 ft | 368 kts | 294° |
| 2026-05-06 18:18 | 51.03596 | 6.43250 | 33899 ft | 386 kts | 294° |
| 2026-05-06 18:18 | 51.06052 | 6.35457 | 33885 ft | 402 kts | 294° |
| 2026-05-06 18:19 | 51.08595 | 6.27364 | 33882 ft | 416 kts | 294° |
| 2026-05-06 18:19 | 51.11217 | 6.18996 | 33887 ft | 429 kts | 294° |
| 2026-05-06 18:20 | 51.13780 | 6.10305 | 33886 ft | 438 kts | 288° |
| 2026-05-06 18:20 | 51.15494 | 6.01089 | 33902 ft | 445 kts | 283° |
| 2026-05-06 18:21 | 51.16852 | 5.92815 | 33888 ft | 451 kts | 283° |
| 2026-05-06 18:21 | 51.18520 | 5.83188 | 33886 ft | 452 kts | 289° |
| 2026-05-06 18:22 | 51.20720 | 5.74300 | 33900 ft | 452 kts | 290° |
| 2026-05-06 18:22 | 51.23152 | 5.65042 | 33898 ft | 453 kts | 291° |
| 2026-05-06 18:23 | 51.25605 | 5.55782 | 33903 ft | 453 kts | 291° |
| 2026-05-06 18:23 | 51.28042 | 5.46510 | 33904 ft | 453 kts | 291° |
| 2026-05-06 18:24 | 51.30052 | 5.38805 | 33908 ft | 452 kts | 291° |
| 2026-05-06 18:24 | 51.32464 | 5.29512 | 33908 ft | 452 kts | 291° |
| 2026-05-06 18:25 | 51.34865 | 5.20224 | 33911 ft | 452 kts | 291° |
| 2026-05-06 18:25 | 51.37258 | 5.10926 | 33910 ft | 452 kts | 291° |
| 2026-05-06 18:26 | 51.39642 | 5.01628 | 33913 ft | 451 kts | 291° |
| 2026-05-06 18:26 | 51.42019 | 4.92324 | 33912 ft | 451 kts | 291° |
| 2026-05-06 18:27 | 51.44384 | 4.83024 | 33916 ft | 450 kts | 291° |
| 2026-05-06 18:27 | 51.46739 | 4.73725 | 33917 ft | 450 kts | 291° |
| 2026-05-06 18:28 | 51.49085 | 4.64424 | 33911 ft | 449 kts | 291° |
| 2026-05-06 18:28 | 51.51421 | 4.55122 | 33907 ft | 449 kts | 291° |
| 2026-05-06 18:29 | 51.53745 | 4.45827 | 33910 ft | 449 kts | 291° |
| 2026-05-06 18:29 | 51.56062 | 4.36526 | 33908 ft | 448 kts | 290° |
| 2026-05-06 18:30 | 51.58353 | 4.27287 | 33910 ft | 448 kts | 290° |
| 2026-05-06 18:30 | 51.60650 | 4.17982 | 33911 ft | 447 kts | 290° |
| 2026-05-06 18:31 | 51.62939 | 4.08676 | 33909 ft | 447 kts | 290° |
| 2026-05-06 18:31 | 51.65215 | 3.99379 | 33914 ft | 446 kts | 290° |
| 2026-05-06 18:32 | 51.67481 | 3.90092 | 33918 ft | 445 kts | 290° |
| 2026-05-06 18:32 | 51.69733 | 3.80817 | 33921 ft | 444 kts | 290° |
| 2026-05-06 18:33 | 51.71973 | 3.71558 | 33926 ft | 443 kts | 290° |
| 2026-05-06 18:33 | 51.74206 | 3.62286 | 33930 ft | 443 kts | 290° |
| 2026-05-06 18:34 | 51.76429 | 3.53010 | 33931 ft | 444 kts | 290° |
| 2026-05-06 18:34 | 51.78649 | 3.43716 | 33939 ft | 443 kts | 290° |
| 2026-05-06 18:35 | 51.80861 | 3.34411 | 33939 ft | 443 kts | 290° |
| 2026-05-06 18:35 | 51.83061 | 3.25106 | 33939 ft | 443 kts | 290° |
| 2026-05-06 18:36 | 51.84476 | 3.15439 | 33941 ft | 443 kts | 274° |
| 2026-05-06 18:36 | 51.84245 | 3.05513 | 33944 ft | 442 kts | 265° |
| 2026-05-06 18:37 | 51.83606 | 2.95630 | 33955 ft | 442 kts | 264° |
| 2026-05-06 18:37 | 51.82903 | 2.85773 | 33952 ft | 441 kts | 264° |
| 2026-05-06 18:38 | 51.82215 | 2.75918 | 33953 ft | 441 kts | 264° |
| 2026-05-06 18:38 | 51.81546 | 2.66129 | 33951 ft | 441 kts | 264° |
| 2026-05-06 18:39 | 51.80867 | 2.56266 | 33965 ft | 442 kts | 264° |
| 2026-05-06 18:40 | 51.79834 | 2.41478 | 33962 ft | 442 kts | 264° |
| 2026-05-06 18:40 | 51.79134 | 2.31627 | 33964 ft | 442 kts | 263° |
| 2026-05-06 18:40 | 51.78781 | 2.26707 | 33688 ft | 439 kts | 263° |
| 2026-05-06 18:41 | 51.78434 | 2.21811 | 32751 ft | 440 kts | 264° |
| 2026-05-06 18:41 | 51.78118 | 2.16871 | 31689 ft | 444 kts | 264° |
| 2026-05-06 18:41 | 51.77823 | 2.11897 | 30755 ft | 445 kts | 265° |
| 2026-05-06 18:41 | 51.77536 | 2.06902 | 29615 ft | 448 kts | 265° |
| 2026-05-06 18:42 | 51.77248 | 2.01865 | 28335 ft | 452 kts | 265° |
| 2026-05-06 18:42 | 51.76954 | 1.96813 | 27483 ft | 452 kts | 264° |
| 2026-05-06 18:42 | 51.76653 | 1.91745 | 27057 ft | 456 kts | 264° |
| 2026-05-06 18:42 | 51.76346 | 1.86640 | 26906 ft | 457 kts | 264° |
| 2026-05-06 18:43 | 51.76035 | 1.81543 | 26971 ft | 456 kts | 264° |
| 2026-05-06 18:43 | 51.75722 | 1.76462 | 26974 ft | 454 kts | 264° |
| 2026-05-06 18:43 | 51.75410 | 1.71432 | 26707 ft | 439 kts | 264° |
| 2026-05-06 18:43 | 51.75111 | 1.66651 | 25672 ft | 420 kts | 264° |
| 2026-05-06 18:44 | 51.74782 | 1.62000 | 24197 ft | 416 kts | 261° |
| 2026-05-06 18:44 | 51.74273 | 1.57461 | 22875 ft | 407 kts | 259° |
| 2026-05-06 18:44 | 51.73750 | 1.53005 | 21526 ft | 404 kts | 259° |
| 2026-05-06 18:44 | 51.73218 | 1.48559 | 20811 ft | 401 kts | 259° |
| 2026-05-06 18:45 | 51.72688 | 1.44176 | 20222 ft | 395 kts | 259° |
| 2026-05-06 18:45 | 51.72161 | 1.39858 | 19620 ft | 390 kts | 259° |
| 2026-05-06 18:45 | 51.71710 | 1.36170 | 19094 ft | 387 kts | 259° |
| 2026-05-06 18:45 | 51.71189 | 1.31935 | 18495 ft | 384 kts | 259° |
| 2026-05-06 18:46 | 51.70669 | 1.27729 | 17842 ft | 381 kts | 259° |
| 2026-05-06 18:46 | 51.70152 | 1.23555 | 17152 ft | 378 kts | 259° |
| 2026-05-06 18:46 | 51.69637 | 1.19419 | 16483 ft | 375 kts | 259° |
| 2026-05-06 18:46 | 51.69126 | 1.15319 | 15824 ft | 372 kts | 259° |
| 2026-05-06 18:47 | 51.68617 | 1.11251 | 15164 ft | 369 kts | 259° |
| 2026-05-06 18:47 | 51.68110 | 1.07210 | 14532 ft | 366 kts | 259° |
| 2026-05-06 18:47 | 51.67608 | 1.03200 | 13908 ft | 364 kts | 260° |
| 2026-05-06 18:47 | 51.67528 | 0.99166 | 13211 ft | 360 kts | 280° |
| 2026-05-06 18:48 | 51.68261 | 0.95355 | 12735 ft | 352 kts | 289° |
| 2026-05-06 18:48 | 51.68864 | 0.91613 | 12480 ft | 339 kts | 281° |
| 2026-05-06 18:48 | 51.69156 | 0.87913 | 12255 ft | 327 kts | 275° |
| 2026-05-06 18:48 | 51.69229 | 0.84322 | 12052 ft | 315 kts | 271° |
| 2026-05-06 18:49 | 51.69169 | 0.80852 | 11869 ft | 304 kts | 268° |
| 2026-05-06 18:49 | 51.69037 | 0.77510 | 11672 ft | 295 kts | 266° |
| 2026-05-06 18:49 | 51.68866 | 0.74255 | 11383 ft | 290 kts | 265° |
| 2026-05-06 18:49 | 51.68674 | 0.71098 | 11034 ft | 287 kts | 265° |
| 2026-05-06 18:50 | 51.68474 | 0.68030 | 10680 ft | 285 kts | 265° |
| 2026-05-06 18:50 | 51.68254 | 0.64804 | 10295 ft | 284 kts | 264° |
| 2026-05-06 18:50 | 51.68033 | 0.61653 | 9937 ft | 282 kts | 264° |
| 2026-05-06 18:50 | 51.67810 | 0.58521 | 9533 ft | 281 kts | 264° |
| 2026-05-06 18:51 | 51.67587 | 0.55408 | 9127 ft | 279 kts | 264° |
| 2026-05-06 18:51 | 51.67364 | 0.52304 | 8722 ft | 278 kts | 264° |
| 2026-05-06 18:51 | 51.67159 | 0.49238 | 8535 ft | 269 kts | 265° |
| 2026-05-06 18:51 | 51.66971 | 0.46285 | 8325 ft | 262 kts | 265° |
| 2026-05-06 18:52 | 51.66759 | 0.43395 | 8073 ft | 257 kts | 263° |
| 2026-05-06 18:52 | 51.66523 | 0.40603 | 8062 ft | 245 kts | 263° |
| 2026-05-06 18:52 | 51.66284 | 0.37908 | 8015 ft | 242 kts | 262° |
| 2026-05-06 18:52 | 51.66036 | 0.35226 | 7913 ft | 241 kts | 263° |
| 2026-05-06 18:53 | 51.65804 | 0.32532 | 7968 ft | 243 kts | 263° |
| 2026-05-06 18:53 | 51.65588 | 0.29867 | 7953 ft | 243 kts | 264° |
| 2026-05-06 18:53 | 51.65390 | 0.27169 | 7829 ft | 242 kts | 264° |
| 2026-05-06 18:53 | 51.65206 | 0.24456 | 7880 ft | 244 kts | 265° |
| 2026-05-06 18:54 | 51.65043 | 0.21702 | 8003 ft | 245 kts | 265° |
| 2026-05-06 18:54 | 51.64881 | 0.19016 | 8020 ft | 244 kts | 266° |
| 2026-05-06 18:54 | 51.64763 | 0.16293 | 7966 ft | 243 kts | 267° |
| 2026-05-06 18:54 | 51.64655 | 0.13570 | 7995 ft | 246 kts | 267° |
| 2026-05-06 18:55 | 51.64571 | 0.10829 | 7852 ft | 246 kts | 268° |
| 2026-05-06 18:55 | 51.64470 | 0.08053 | 7767 ft | 248 kts | 267° |
| 2026-05-06 18:55 | 51.64351 | 0.05310 | 7843 ft | 244 kts | 266° |
| 2026-05-06 18:55 | 51.64259 | 0.02625 | 7996 ft | 238 kts | 267° |
| 2026-05-06 18:56 | 51.64135 | -0.00078 | 7885 ft | 243 kts | 266° |
| 2026-05-06 18:56 | 51.64001 | -0.02747 | 8004 ft | 236 kts | 265° |
| 2026-05-06 18:56 | 51.63864 | -0.05345 | 8020 ft | 232 kts | 266° |
| 2026-05-06 18:56 | 51.63748 | -0.07981 | 7779 ft | 240 kts | 266° |
| 2026-05-06 18:57 | 51.63621 | -0.10716 | 7479 ft | 249 kts | 266° |
| 2026-05-06 18:57 | 51.63492 | -0.13492 | 7366 ft | 246 kts | 266° |
| 2026-05-06 18:57 | 51.63380 | -0.16210 | 7164 ft | 241 kts | 267° |
| 2026-05-06 18:57 | 51.63294 | -0.18879 | 7067 ft | 235 kts | 268° |
| 2026-05-06 18:58 | 51.63215 | -0.21475 | 7034 ft | 231 kts | 267° |
| 2026-05-06 18:58 | 51.63126 | -0.24074 | 7033 ft | 231 kts | 266° |
| 2026-05-06 18:58 | 51.63000 | -0.26666 | 7001 ft | 234 kts | 266° |
| 2026-05-06 18:58 | 51.62864 | -0.29304 | 6990 ft | 239 kts | 266° |
| 2026-05-06 18:59 | 51.62722 | -0.32002 | 6963 ft | 244 kts | 266° |
| 2026-05-06 18:59 | 51.62570 | -0.34683 | 6998 ft | 243 kts | 265° |
| 2026-05-06 18:59 | 51.62400 | -0.37402 | 6991 ft | 246 kts | 265° |
| 2026-05-06 18:59 | 51.62269 | -0.40162 | 6952 ft | 250 kts | 266° |
| 2026-05-06 19:00 | 51.62126 | -0.42966 | 6919 ft | 254 kts | 266° |
| 2026-05-06 19:00 | 51.61977 | -0.45809 | 6931 ft | 257 kts | 266° |
| 2026-05-06 19:00 | 51.61813 | -0.48666 | 6959 ft | 258 kts | 265° |
| 2026-05-06 19:00 | 51.61670 | -0.50627 | 6910 ft | 263 kts | 262° |
| 2026-05-06 19:01 | 51.61324 | -0.54468 | 6984 ft | 262 kts | 265° |
| 2026-05-06 19:01 | 51.61134 | -0.57388 | 6993 ft | 264 kts | 266° |
| 2026-05-06 19:01 | 51.60948 | -0.60335 | 6995 ft | 266 kts | 265° |
| 2026-05-06 19:01 | 51.60769 | -0.63307 | 6998 ft | 268 kts | 266° |
| 2026-05-06 19:02 | 51.60588 | -0.66300 | 6995 ft | 270 kts | 265° |
| 2026-05-06 19:02 | 51.60085 | -0.69206 | 6981 ft | 274 kts | 243° |
| 2026-05-06 19:02 | 51.58906 | -0.71627 | 6973 ft | 277 kts | 227° |
| 2026-05-06 19:02 | 51.57490 | -0.73852 | 6373 ft | 289 kts | 222° |
| 2026-05-06 19:03 | 51.56007 | -0.75934 | 5866 ft | 275 kts | 225° |
| 2026-05-06 19:03 | 51.54675 | -0.77992 | 5568 ft | 256 kts | 226° |
| 2026-05-06 19:03 | 51.53441 | -0.79911 | 5327 ft | 239 kts | 225° |
| 2026-05-06 19:03 | 51.52282 | -0.81706 | 5071 ft | 225 kts | 225° |
| 2026-05-06 19:04 | 51.51160 | -0.83437 | 5021 ft | 224 kts | 226° |
| 2026-05-06 19:04 | 51.50031 | -0.85170 | 5031 ft | 225 kts | 225° |
| 2026-05-06 19:04 | 51.48850 | -0.86803 | 4981 ft | 226 kts | 210° |
| 2026-05-06 19:04 | 51.47346 | -0.87422 | 4985 ft | 226 kts | 176° |
| 2026-05-06 19:05 | 51.45872 | -0.86658 | 4978 ft | 225 kts | 143° |
| 2026-05-06 19:05 | 51.44881 | -0.84770 | 4979 ft | 222 kts | 110° |
| 2026-05-06 19:05 | 51.44696 | -0.82374 | 5020 ft | 217 kts | 77° |
| 2026-05-06 19:05 | 51.45181 | -0.80092 | 4738 ft | 218 kts | 66° |
| 2026-05-06 19:06 | 51.45764 | -0.77852 | 4352 ft | 218 kts | 66° |
| 2026-05-06 19:06 | 51.46340 | -0.75602 | 3738 ft | 219 kts | 66° |
| 2026-05-06 19:06 | 51.46909 | -0.73359 | 3193 ft | 215 kts | 65° |
| 2026-05-06 19:06 | 51.47470 | -0.71171 | 2801 ft | 209 kts | 66° |
| 2026-05-06 19:07 | 51.47898 | -0.68997 | 2619 ft | 201 kts | 74° |
| 2026-05-06 19:07 | 51.48015 | -0.67499 | 2407 ft | 206 kts | 86° |
| 2026-05-06 19:07 | 51.47825 | -0.64583 | 1966 ft | 183 kts | 97° |
| 2026-05-06 19:07 | 51.47625 | -0.62652 | 1651 ft | 171 kts | 89° |
| 2026-05-06 19:08 | 51.47635 | -0.60719 | 1336 ft | 181 kts | 84° |
| 2026-05-06 19:08 | 51.47687 | -0.58753 | 1103 ft | 170 kts | 83° |
| 2026-05-06 19:08 | 51.47737 | -0.56944 | 852 ft | 158 kts | 88° |
| 2026-05-06 19:08 | 51.47708 | -0.55178 | 692 ft | 164 kts | 86° |
| 2026-05-06 19:09 | 51.47736 | -0.53334 | 635 ft | 164 kts | 86° |
| 2026-05-06 19:09 | 51.47739 | -0.51552 | 528 ft | 155 kts | 86° |
| 2026-05-06 19:09 | 51.47739 | -0.49886 | 298 ft | 142 kts | 85° |
| 2026-05-06 19:09 | 51.47750 | -0.48361 | 104 ft | 130 kts | 87° |
| 2026-05-06 19:10 | 51.47753 | -0.47071 | 95 ft | 95 kts | 89° |
| 2026-05-06 19:10 | 51.47756 | -0.46330 | 98 ft | 51 kts | 89° |
| 2026-05-06 19:10 | 51.47760 | -0.45816 | 91 ft | 44 kts | 92° |
| 2026-05-06 19:10 | 51.47754 | -0.45571 | 94 ft | 19 kts | 100° |
| 2026-05-06 19:11 | 51.47666 | -0.45461 | 93 ft | 14 kts | 183° |
| 2026-05-06 19:11 | 51.47624 | -0.45468 | 91 ft | 0 kts | 186° |
| 2026-05-06 19:11 | 51.47613 | -0.45469 | 92 ft | 3 kts | 184° |
| 2026-05-06 19:11 | 51.47592 | -0.45471 | 92 ft | 2 kts | 182° |
| 2026-05-06 19:12 | 51.47576 | -0.45472 | 96 ft | 1 kts | 182° |
| 2026-05-06 19:12 | 51.47522 | -0.45491 | 95 ft | 18 kts | 210° |
| 2026-05-06 19:12 | 51.47508 | -0.45644 | 97 ft | 15 kts | 281° |
| 2026-05-06 19:12 | 51.47509 | -0.45830 | 95 ft | 17 kts | 270° |
| 2026-05-06 19:13 | 51.47514 | -0.46026 | 95 ft | 18 kts | 272° |
| 2026-05-06 19:13 | 51.47513 | -0.46225 | 95 ft | 19 kts | 268° |
| 2026-05-06 19:13 | 51.47509 | -0.46433 | 97 ft | 18 kts | 268° |
| 2026-05-06 19:13 | 51.47502 | -0.46622 | 96 ft | 17 kts | 265° |
| 2026-05-06 19:14 | 51.47494 | -0.46818 | 94 ft | 18 kts | 266° |
| 2026-05-06 19:14 | 51.47418 | -0.46888 | 94 ft | 13 kts | 170° |
| 2026-05-06 19:14 | 51.47349 | -0.46872 | 95 ft | 3 kts | 174° |
| 2026-05-06 19:14 | 51.47348 | -0.46872 | 95 ft | 0 kts | 174° |
| 2026-05-06 19:15 | 51.47346 | -0.46872 | 95 ft | 1 kts | 174° |
| 2026-05-06 19:15 | 51.47345 | -0.46871 | 95 ft | 0 kts | 174° |
| 2026-05-06 19:15 | 51.47327 | -0.46868 | 94 ft | 9 kts | 174° |
| 2026-05-06 19:16 | 51.47210 | -0.46870 | 93 ft | 24 kts | 184° |
| 2026-05-06 19:16 | 51.47019 | -0.46864 | 91 ft | 26 kts | 179° |
| 2026-05-06 19:16 | 51.46869 | -0.46858 | 92 ft | 10 kts | 176° |
| 2026-05-06 19:16 | 51.46836 | -0.46855 | 93 ft | 2 kts | 179° |
| 2026-05-06 19:17 | 51.46831 | -0.46856 | 92 ft | 0 kts | 184° |
| 2026-05-06 19:17 | 51.46829 | -0.46856 | 93 ft | 3 kts | 184° |
| 2026-05-06 19:17 | 51.46812 | -0.46858 | 93 ft | 4 kts | 183° |
| 2026-05-06 19:17 | 51.46747 | -0.46860 | 94 ft | 14 kts | 181° |
| 2026-05-06 19:18 | 51.46658 | -0.46763 | 96 ft | 17 kts | 88° |
| 2026-05-06 19:18 | 51.46657 | -0.46580 | 98 ft | 16 kts | 91° |
| 2026-05-06 19:18 | 51.46661 | -0.46395 | 95 ft | 17 kts | 88° |
| 2026-05-06 19:18 | 51.46662 | -0.46200 | 91 ft | 18 kts | 89° |
| 2026-05-06 19:19 | 51.46656 | -0.45998 | 91 ft | 15 kts | 96° |
| 2026-05-06 19:19 | 51.46632 | -0.45927 | 88 ft | 0 kts | 136° |
| 2026-05-06 19:19 | 51.46631 | -0.45926 | 91 ft | 1 kts | 136° |
| 2026-05-06 19:20 | 51.46573 | -0.45865 | 90 ft | 22 kts | 146° |
| 2026-05-06 19:20 | 51.46448 | -0.45732 | 92 ft | 21 kts | 146° |
| 2026-05-06 19:20 | 51.46375 | -0.45656 | 91 ft | 5 kts | 147° |
| 2026-05-06 19:20 | 51.46366 | -0.45647 | 95 ft | 0 kts | 147° |
| 2026-05-06 19:21 | 51.46355 | -0.45644 | 93 ft | 4 kts | 175° |